Time;durP1;ratioP1;P1;durP2;ratioP2;P2;SDS_P1;SDS_P2;PMS_P1;PMS_P2;Temp;Humidity;BMP_temperature;BMP_pressure;BME280_temperature;BME280_humidity;BME280_pressure;Samples;Min_cycle;Max_cycle;Signal;HPM_P1;HPM_P2
2022/04/13 00:01:21;;;;;;;11.20;7.33;;;11.00;59.00;;;;;;5030753;28;20445;-58
2022/04/13 00:03:48;;;;;;;10.73;6.20;;;11.00;59.20;;;;;;5029861;28;20444;-59
2022/04/13 00:06:16;;;;;;;9.17;5.87;;;11.00;59.30;;;;;;5029458;28;20460;-58
2022/04/13 00:08:44;;;;;;;10.93;6.60;;;11.00;59.60;;;;;;5030246;28;20457;-58
2022/04/13 00:11:10;;;;;;;14.10;6.33;;;10.90;59.70;;;;;;5030141;28;20441;-57
2022/04/13 00:13:39;;;;;;;11.50;6.07;;;10.90;59.80;;;;;;5030425;28;20445;-56
2022/04/13 00:16:06;;;;;;;12.43;6.00;;;10.90;59.70;;;;;;5033811;28;20445;-56
2022/04/13 00:18:33;;;;;;;8.13;5.40;;;10.90;60.10;;;;;;5033081;28;20503;-59
2022/04/13 00:20:59;;;;;;;9.63;5.90;;;10.90;60.00;;;;;;5033580;28;20449;-57
2022/04/13 00:23:27;;;;;;;9.30;5.67;;;10.90;60.00;;;;;;5033788;28;20461;-54
2022/04/13 00:25:54;;;;;;;12.30;5.93;;;10.90;59.90;;;;;;5034007;28;20449;-58
2022/04/13 00:28:21;;;;;;;10.27;6.17;;;10.90;60.70;;;;;;5033477;28;20465;-60
2022/04/13 00:30:47;;;;;;;11.20;6.47;;;10.80;60.20;;;;;;5033197;28;20445;-60
2022/04/13 00:33:17;;;;;;;9.00;6.50;;;10.80;60.00;;;;;;5033589;28;20465;-58
2022/04/13 00:35:44;;;;;;;12.43;6.60;;;10.80;60.30;;;;;;5034084;28;20455;-60
2022/04/13 00:38:13;;;;;;;9.47;6.57;;;10.80;60.40;;;;;;5033777;28;20496;-53
2022/04/13 00:40:41;;;;;;;8.63;6.20;;;10.80;60.80;;;;;;5033845;28;20471;-56
2022/04/13 00:43:08;;;;;;;10.50;6.73;;;10.70;60.90;;;;;;5033889;28;20461;-55
2022/04/13 00:45:35;;;;;;;7.87;6.20;;;10.80;61.40;;;;;;5034385;28;20584;-58
2022/04/13 00:48:04;;;;;;;10.70;6.77;;;10.80;61.90;;;;;;5033516;28;20469;-56
2022/04/13 00:50:31;;;;;;;12.97;6.43;;;10.70;61.20;;;;;;5033420;28;20520;-59
2022/04/13 00:53:00;;;;;;;12.70;6.40;;;10.70;62.10;;;;;;5033306;28;20843;-55
2022/04/13 00:55:27;;;;;;;10.90;6.57;;;10.70;61.30;;;;;;5033469;28;21001;-58
2022/04/13 00:57:58;;;;;;;9.10;6.13;;;10.70;62.00;;;;;;5033066;28;20492;-58
2022/04/13 01:00:25;;;;;;;13.57;5.90;;;10.70;61.80;;;;;;5033307;28;20461;-57
2022/04/13 01:02:54;;;;;;;11.70;7.90;;;10.60;62.60;;;;;;5033273;28;20537;-58
2022/04/13 01:05:22;;;;;;;9.30;6.20;;;10.60;62.30;;;;;;5032555;28;20505;-58
2022/04/13 01:07:52;;;;;;;11.90;7.03;;;10.60;63.10;;;;;;5033022;28;20525;-55
2022/04/13 01:10:18;;;;;;;10.73;6.73;;;10.60;62.50;;;;;;5033411;28;20445;-58
2022/04/13 01:12:45;;;;;;;8.60;6.00;;;10.60;63.80;;;;;;5032669;28;20465;-58
2022/04/13 01:15:13;;;;;;;14.07;7.77;;;10.50;63.20;;;;;;5032908;28;20516;-58
2022/04/13 01:17:40;;;;;;;12.97;6.60;;;10.50;63.20;;;;;;5032988;28;20527;-57
2022/04/13 01:20:10;;;;;;;13.83;6.50;;;10.50;63.60;;;;;;5032648;28;20460;-57
2022/04/13 01:22:38;;;;;;;14.73;7.20;;;10.50;64.00;;;;;;5033479;28;20527;-58
2022/04/13 01:25:06;;;;;;;12.20;6.60;;;10.50;64.20;;;;;;5032622;28;20480;-58
2022/04/13 01:27:33;;;;;;;8.90;7.00;;;10.50;64.80;;;;;;5032935;28;20473;-55
2022/04/13 01:30:00;;;;;;;10.83;8.27;;;10.40;65.60;;;;;;5032875;28;20471;-55
2022/04/13 01:32:27;;;;;;;12.60;8.20;;;10.40;66.10;;;;;;5032384;28;20468;-58
2022/04/13 01:34:54;;;;;;;8.23;5.43;;;10.30;66.50;;;;;;5033233;28;20438;-58
2022/04/13 01:37:21;;;;;;;11.67;6.33;;;10.30;66.50;;;;;;5032415;28;20500;-55
2022/04/13 01:39:49;;;;;;;10.93;6.30;;;10.30;67.20;;;;;;5032391;28;20437;-59
2022/04/13 01:42:16;;;;;;;11.70;7.03;;;10.30;68.10;;;;;;5032909;28;20463;-58
2022/04/13 01:44:43;;;;;;;11.10;6.70;;;10.20;68.70;;;;;;5032739;28;20426;-54
2022/04/13 01:47:10;;;;;;;6.83;6.13;;;10.20;69.10;;;;;;5032437;28;20441;-54
2022/04/13 01:49:36;;;;;;;9.67;6.50;;;10.20;70.20;;;;;;5033073;28;20457;-59
2022/04/13 01:52:04;;;;;;;12.23;6.63;;;10.10;70.50;;;;;;5032721;28;20449;-57
2022/04/13 01:54:31;;;;;;;13.90;7.50;;;10.10;70.80;;;;;;5032316;28;20442;-56
2022/04/13 01:56:59;;;;;;;14.67;7.23;;;10.10;71.70;;;;;;5032490;28;20951;-58
2022/04/13 01:59:25;;;;;;;12.83;7.80;;;10.00;72.20;;;;;;5032750;28;20790;-54
2022/04/13 02:01:54;;;;;;;12.97;7.50;;;10.00;72.90;;;;;;5033102;28;20504;-58
2022/04/13 02:04:23;;;;;;;13.00;6.83;;;10.00;73.30;;;;;;5033001;28;20433;-58
2022/04/13 02:06:51;;;;;;;12.43;6.83;;;9.90;75.10;;;;;;5033349;28;20465;-59
2022/04/13 02:09:18;;;;;;;9.13;7.33;;;10.00;74.90;;;;;;5033732;28;20453;-59
2022/04/13 02:11:46;;;;;;;10.57;6.57;;;9.90;76.00;;;;;;5033099;28;20445;-58
2022/04/13 02:14:15;;;;;;;11.03;6.97;;;9.90;76.80;;;;;;5033403;28;20975;-58
2022/04/13 02:16:41;;;;;;;11.50;7.57;;;9.90;78.00;;;;;;5033400;28;20464;-58
2022/04/13 02:19:11;;;;;;;10.87;6.63;;;9.80;78.50;;;;;;5033310;28;20465;-57
2022/04/13 02:21:38;;;;;;;14.50;7.87;;;9.80;79.30;;;;;;5033073;28;20538;-57
2022/04/13 02:24:05;;;;;;;9.60;6.10;;;9.80;79.60;;;;;;5033275;28;20465;-54
2022/04/13 02:26:32;;;;;;;11.53;6.37;;;9.70;80.80;;;;;;5033327;28;20463;-59
2022/04/13 02:28:59;;;;;;;10.30;5.93;;;9.70;81.70;;;;;;5032773;28;20460;-55
2022/04/13 02:31:26;;;;;;;10.90;6.47;;;9.70;82.60;;;;;;5033689;28;20437;-56
2022/04/13 02:33:55;;;;;;;14.33;7.37;;;9.70;83.20;;;;;;5032887;28;20453;-58
2022/04/13 02:36:22;;;;;;;12.80;6.60;;;9.60;83.10;;;;;;5032441;28;20433;-55
2022/04/13 02:38:49;;;;;;;10.13;7.13;;;9.60;84.60;;;;;;5033231;28;20489;-57
2022/04/13 02:41:15;;;;;;;8.53;5.90;;;9.50;85.10;;;;;;5033228;28;20449;-55
2022/04/13 02:43:42;;;;;;;16.10;7.67;;;9.50;85.00;;;;;;5032914;28;20472;-57
2022/04/13 02:46:09;;;;;;;11.57;7.73;;;9.50;86.40;;;;;;5033034;28;20448;-58
2022/04/13 02:48:37;;;;;;;10.10;6.23;;;9.50;87.50;;;;;;5033151;28;20492;-58
2022/04/13 02:51:04;;;;;;;12.20;7.20;;;9.50;87.60;;;;;;5033263;28;20479;-58
2022/04/13 02:53:31;;;;;;;10.63;6.37;;;9.40;88.10;;;;;;5033537;28;20473;-58
2022/04/13 02:55:58;;;;;;;12.60;5.80;;;9.40;88.70;;;;;;5033660;28;20943;-58
2022/04/13 02:58:25;;;;;;;9.77;5.83;;;9.30;89.20;;;;;;5032949;28;20492;-58
2022/04/13 03:00:53;;;;;;;13.90;6.33;;;9.40;90.10;;;;;;5033495;28;20432;-58
2022/04/13 03:03:21;;;;;;;14.93;6.47;;;9.30;90.30;;;;;;5033776;28;20472;-55
2022/04/13 03:05:49;;;;;;;14.40;7.73;;;9.20;90.80;;;;;;5033324;28;20966;-57
2022/04/13 03:08:16;;;;;;;12.23;5.57;;;9.20;91.30;;;;;;5033385;28;20465;-57
2022/04/13 03:10:44;;;;;;;9.57;7.77;;;9.20;91.50;;;;;;5033486;28;20453;-56
2022/04/13 03:13:11;;;;;;;8.97;6.60;;;9.10;91.60;;;;;;5033573;28;20449;-60
2022/04/13 03:15:38;;;;;;;11.13;7.20;;;9.10;91.90;;;;;;5033374;28;20448;-57
2022/04/13 03:18:06;;;;;;;34.80;7.70;;;9.10;92.30;;;;;;5033622;28;20477;-58
2022/04/13 03:20:33;;;;;;;16.57;7.87;;;9.10;92.30;;;;;;5033505;28;20433;-58
2022/04/13 03:23:01;;;;;;;13.13;6.13;;;9.10;92.60;;;;;;5033577;28;20445;-58
2022/04/13 03:25:28;;;;;;;17.90;7.90;;;9.10;93.00;;;;;;5033038;28;20453;-58
2022/04/13 03:27:55;;;;;;;11.80;6.87;;;9.10;92.80;;;;;;5033362;28;20437;-55
2022/04/13 03:30:23;;;;;;;14.67;6.80;;;9.00;93.00;;;;;;5033438;28;20966;-56
2022/04/13 03:32:51;;;;;;;11.60;7.63;;;9.00;93.30;;;;;;5033104;28;20455;-57
2022/04/13 03:35:18;;;;;;;10.17;6.90;;;9.00;93.50;;;;;;5033549;28;20466;-57
2022/04/13 03:37:44;;;;;;;11.60;6.97;;;9.00;93.60;;;;;;5033682;28;20485;-58
2022/04/13 03:40:13;;;;;;;9.00;6.30;;;9.00;93.80;;;;;;5033052;28;20483;-58
2022/04/13 03:42:41;;;;;;;11.97;7.30;;;8.90;94.00;;;;;;5033409;28;20464;-55
2022/04/13 03:45:10;;;;;;;12.13;6.03;;;8.90;94.30;;;;;;5033974;28;20472;-56
2022/04/13 03:47:37;;;;;;;8.50;5.80;;;8.90;94.60;;;;;;5033954;28;20477;-56
2022/04/13 03:50:05;;;;;;;8.57;6.40;;;8.90;94.80;;;;;;5037651;28;20479;-58
2022/04/13 03:52:33;;;;;;;13.63;6.40;;;8.80;95.00;;;;;;5037414;28;20441;-59
2022/04/13 03:54:59;;;;;;;11.10;7.50;;;8.80;95.20;;;;;;5037674;28;20483;-56
2022/04/13 03:57:28;;;;;;;10.63;7.17;;;8.80;95.40;;;;;;5037377;28;20489;-55
2022/04/13 03:59:54;;;;;;;13.10;7.47;;;8.80;95.60;;;;;;5037116;28;20556;-57
2022/04/13 04:02:21;;;;;;;13.73;7.37;;;8.70;95.80;;;;;;5037088;28;20515;-59
2022/04/13 04:04:50;;;;;;;10.87;6.40;;;8.70;96.00;;;;;;5037299;28;20471;-55
2022/04/13 04:07:17;;;;;;;9.77;6.87;;;8.70;96.40;;;;;;5036975;28;20460;-58
2022/04/13 04:09:46;;;;;;;9.50;6.13;;;8.70;96.50;;;;;;5036855;28;20572;-57
2022/04/13 04:12:13;;;;;;;11.50;7.50;;;8.70;96.60;;;;;;5037004;28;20444;-55
2022/04/13 04:14:41;;;;;;;11.43;6.70;;;8.70;96.80;;;;;;5037079;28;20488;-57
2022/04/13 04:17:07;;;;;;;18.47;7.10;;;8.70;96.60;;;;;;5037093;28;20441;-53
2022/04/13 04:19:34;;;;;;;10.00;7.43;;;8.70;97.00;;;;;;5037211;28;20935;-56
2022/04/13 04:22:04;;;;;;;11.80;7.60;;;8.70;96.90;;;;;;5037704;28;20441;-58
2022/04/13 04:24:31;;;;;;;12.13;8.70;;;8.70;97.40;;;;;;5037042;28;20496;-56
2022/04/13 04:26:58;;;;;;;9.90;6.23;;;8.70;97.50;;;;;;5036835;28;20451;-59
2022/04/13 04:29:26;;;;;;;11.70;7.53;;;8.70;97.30;;;;;;5037368;28;20456;-56
2022/04/13 04:31:54;;;;;;;15.50;7.57;;;8.70;97.60;;;;;;5037096;28;20492;-58
2022/04/13 04:34:23;;;;;;;15.63;7.87;;;8.80;97.70;;;;;;5036901;28;20460;-57
2022/04/13 04:36:52;;;;;;;10.40;6.87;;;8.80;97.70;;;;;;5037406;28;20442;-58
2022/04/13 04:39:19;;;;;;;12.50;7.10;;;8.80;98.00;;;;;;5036668;28;20495;-58
2022/04/13 04:41:47;;;;;;;12.43;7.03;;;8.90;98.10;;;;;;5036204;28;20516;-55
2022/04/13 04:44:13;;;;;;;12.27;7.10;;;8.90;97.60;;;;;;5036530;28;20453;-57
2022/04/13 04:46:40;;;;;;;11.53;6.97;;;8.90;97.60;;;;;;5036856;28;20465;-57
2022/04/13 04:49:08;;;;;;;11.17;6.00;;;8.90;97.60;;;;;;5036222;28;20470;-57
2022/04/13 04:51:35;;;;;;;11.97;7.53;;;8.90;97.90;;;;;;5036007;28;20449;-57
2022/04/13 04:54:03;;;;;;;14.20;7.30;;;8.90;97.60;;;;;;5036282;28;20509;-57
2022/04/13 04:56:30;;;;;;;9.63;6.93;;;8.90;97.60;;;;;;5036037;28;20429;-53
2022/04/13 04:58:57;;;;;;;12.20;7.00;;;9.00;97.60;;;;;;5035903;28;20553;-56
2022/04/13 05:01:24;;;;;;;9.77;6.50;;;9.00;97.40;;;;;;5035959;28;20460;-56
2022/04/13 05:03:53;;;;;;;12.73;7.13;;;9.00;97.30;;;;;;5036166;28;20508;-55
2022/04/13 05:06:22;;;;;;;8.47;6.70;;;9.00;97.30;;;;;;5035438;28;20460;-58
2022/04/13 05:08:49;;;;;;;10.03;7.10;;;9.00;97.10;;;;;;5035962;28;20445;-58
2022/04/13 05:11:16;;;;;;;16.10;7.50;;;9.00;97.20;;;;;;5034676;28;20429;-58
2022/04/13 05:13:45;;;;;;;10.53;6.90;;;9.00;97.50;;;;;;5034863;28;20484;-57
2022/04/13 05:16:12;;;;;;;10.10;7.23;;;9.10;97.30;;;;;;5033930;28;20441;-57
2022/04/13 05:18:39;;;;;;;15.10;7.30;;;9.10;97.30;;;;;;5034162;28;20509;-58
2022/04/13 05:21:08;;;;;;;12.30;7.73;;;9.10;97.30;;;;;;5034934;28;20440;-57
2022/04/13 05:23:36;;;;;;;13.57;8.27;;;9.10;97.00;;;;;;5035656;28;20433;-58
2022/04/13 05:26:03;;;;;;;17.93;8.00;;;9.20;97.00;;;;;;5035758;28;20445;-55
2022/04/13 05:28:30;;;;;;;9.80;7.40;;;9.20;97.00;;;;;;5035404;28;20441;-59
2022/04/13 05:30:58;;;;;;;18.80;8.57;;;9.20;96.80;;;;;;5035648;28;20437;-52
2022/04/13 05:33:25;;;;;;;12.67;6.90;;;9.20;96.90;;;;;;5035061;28;20441;-57
2022/04/13 05:35:52;;;;;;;12.77;9.10;;;9.20;96.90;;;;;;5035225;28;20484;-56
2022/04/13 05:38:20;;;;;;;15.60;8.17;;;9.20;96.90;;;;;;5035883;28;20535;-59
2022/04/13 05:40:48;;;;;;;14.87;8.07;;;9.30;96.80;;;;;;5036625;28;20473;-55
2022/04/13 05:43:15;;;;;;;15.13;6.40;;;9.40;96.60;;;;;;5036138;28;20499;-59
2022/04/13 05:45:42;;;;;;;10.90;7.27;;;9.40;96.70;;;;;;5036064;28;20445;-56
2022/04/13 05:48:10;;;;;;;10.40;7.07;;;9.50;96.50;;;;;;5036477;28;20464;-55
2022/04/13 05:50:37;;;;;;;16.90;8.07;;;9.50;96.20;;;;;;5036389;28;20468;-61
2022/04/13 05:53:04;;;;;;;10.07;7.40;;;9.50;96.20;;;;;;5036092;28;20433;-57
2022/04/13 05:55:30;;;;;;;11.60;8.03;;;9.60;96.30;;;;;;5036769;28;20523;-64
2022/04/13 05:58:01;;;;;;;12.83;7.20;;;9.70;96.30;;;;;;5036298;28;20485;-58
2022/04/13 06:00:27;;;;;;;13.50;7.50;;;9.80;96.00;;;;;;5037214;28;20473;-59
2022/04/13 06:02:56;;;;;;;14.63;7.40;;;9.90;95.70;;;;;;5037448;28;20452;-58
2022/04/13 06:05:24;;;;;;;10.27;6.90;;;10.00;95.00;;;;;;5036312;28;20503;-57
2022/04/13 06:07:53;;;;;;;11.93;7.10;;;10.00;94.90;;;;;;5036741;28;20488;-60
2022/04/13 06:10:20;;;;;;;13.07;6.63;;;10.00;94.80;;;;;;5035662;28;20469;-57
2022/04/13 06:12:50;;;;;;;14.20;6.50;;;10.10;94.80;;;;;;5036019;28;20822;-58
2022/04/13 06:15:18;;;;;;;11.00;6.13;;;10.10;94.70;;;;;;5035545;28;20685;-55
2022/04/13 06:17:45;;;;;;;15.10;7.10;;;10.20;94.80;;;;;;5035283;28;20437;-57
2022/04/13 06:20:14;;;;;;;9.23;6.83;;;10.30;94.70;;;;;;5035400;28;20499;-52
2022/04/13 06:22:43;;;;;;;14.57;9.50;;;10.50;94.60;;;;;;5035743;28;20441;-55
2022/04/13 06:25:11;;;;;;;14.17;7.00;;;10.50;94.10;;;;;;5035792;28;20460;-59
2022/04/13 06:27:38;;;;;;;16.50;7.80;;;10.60;94.20;;;;;;5035619;28;20421;-57
2022/04/13 06:30:06;;;;;;;11.77;7.80;;;10.80;93.90;;;;;;5035466;28;20469;-57
2022/04/13 06:32:36;;;;;;;12.67;7.70;;;10.90;93.50;;;;;;5035723;28;20484;-56
2022/04/13 06:35:05;;;;;;;10.83;7.27;;;11.00;93.20;;;;;;5035950;28;20511;-56
2022/04/13 06:37:31;;;;;;;19.00;7.80;;;11.10;92.60;;;;;;5036328;28;20410;-58
2022/04/13 06:39:58;;;;;;;12.23;7.87;;;11.20;92.40;;;;;;5035626;28;20489;-59
2022/04/13 06:42:27;;;;;;;14.50;8.67;;;11.40;92.30;;;;;;5035168;28;20472;-58
2022/04/13 06:44:54;;;;;;;12.80;7.10;;;11.50;91.80;;;;;;5035912;28;20453;-59
2022/04/13 06:47:23;;;;;;;12.27;7.33;;;11.60;91.00;;;;;;5035466;28;20422;-53
2022/04/13 06:49:51;;;;;;;12.30;8.03;;;11.70;90.60;;;;;;5034676;28;20456;-58
2022/04/13 06:52:17;;;;;;;13.57;8.20;;;11.80;90.10;;;;;;5034439;28;20441;-58
2022/04/13 06:54:44;;;;;;;16.20;7.40;;;11.90;90.00;;;;;;5029084;28;20452;-56
2022/04/13 06:57:11;;;;;;;10.40;8.13;;;12.00;89.40;;;;;;5029304;28;20440;-56
2022/04/13 06:59:38;;;;;;;7.83;4.37;;;12.20;88.90;;;;;;5028941;28;20491;-57
2022/04/13 07:02:06;;;;;;;11.07;6.70;;;12.40;93.80;;;;;;5012382;28;20549;-54
2022/04/13 07:04:33;;;;;;;10.77;7.73;;;13.10;91.90;;;;;;5028325;28;20452;-55
2022/04/13 07:07:02;;;;;;;12.03;7.97;;;13.60;89.70;;;;;;5027048;28;20469;-56
2022/04/13 07:09:29;;;;;;;12.37;5.93;;;14.10;86.60;;;;;;5027705;28;20499;-57
2022/04/13 07:11:56;;;;;;;9.53;6.43;;;14.50;86.90;;;;;;5027319;28;20441;-57
2022/04/13 07:14:22;;;;;;;12.10;6.60;;;14.90;83.80;;;;;;5025852;28;20507;-58
2022/04/13 07:16:49;;;;;;;14.60;7.53;;;14.90;74.60;;;;;;5016440;28;20456;-58
2022/04/13 07:19:16;;;;;;;13.20;7.50;;;14.70;73.20;;;;;;5014564;28;20835;-58
2022/04/13 07:21:43;;;;;;;12.70;7.40;;;14.60;73.10;;;;;;5014547;28;20818;-59
2022/04/13 07:24:12;;;;;;;13.40;8.50;;;14.40;72.60;;;;;;5013873;28;20464;-59
2022/04/13 07:26:38;;;;;;;14.90;7.23;;;14.30;72.70;;;;;;5013953;28;20560;-59
2022/04/13 07:29:05;;;;;;;12.43;7.43;;;14.20;72.70;;;;;;5014598;28;20458;-59
2022/04/13 07:31:32;;;;;;;12.60;8.00;;;14.20;72.90;;;;;;5014524;28;20544;-58
2022/04/13 07:33:59;;;;;;;10.33;6.90;;;14.30;73.10;;;;;;5014352;28;20453;-59
2022/04/13 07:36:26;;;;;;;12.00;7.87;;;14.50;72.00;;;;;;5014211;28;20456;-61
2022/04/13 07:38:52;;;;;;;9.67;6.50;;;14.60;71.40;;;;;;5014537;28;20504;-58
2022/04/13 07:41:20;;;;;;;19.33;7.83;;;14.70;71.50;;;;;;5014661;28;20655;-60
2022/04/13 07:43:49;;;;;;;11.10;7.03;;;14.80;70.30;;;;;;5014385;28;20553;-58
2022/04/13 07:46:16;;;;;;;14.00;7.97;;;14.90;69.20;;;;;;5014314;28;20749;-59
2022/04/13 07:48:43;;;;;;;10.30;7.00;;;15.00;69.20;;;;;;5013967;28;20483;-60
2022/04/13 07:51:10;;;;;;;15.27;8.17;;;15.10;68.80;;;;;;5014508;28;20461;-58
2022/04/13 07:53:37;;;;;;;13.50;7.10;;;15.20;68.50;;;;;;5014039;28;20456;-58
2022/04/13 07:56:04;;;;;;;10.80;7.50;;;15.30;68.50;;;;;;5014395;28;20449;-58
2022/04/13 07:58:32;;;;;;;13.73;6.50;;;15.40;67.70;;;;;;5014149;28;20989;-59
2022/04/13 08:00:58;;;;;;;13.67;8.03;;;15.60;66.70;;;;;;5014778;28;20535;-57
2022/04/13 08:03:25;;;;;;;15.70;7.50;;;15.80;66.30;;;;;;5015241;28;20445;-58
2022/04/13 08:05:52;;;;;;;12.83;7.70;;;16.40;65.20;;;;;;5014924;28;20483;-58
2022/04/13 08:08:19;;;;;;;11.83;7.47;;;17.30;63.20;;;;;;5015136;28;20441;-53
2022/04/13 08:10:46;;;;;;;11.80;8.03;;;18.20;60.40;;;;;;5014949;28;20452;-64
2022/04/13 08:13:13;;;;;;;12.60;7.50;;;19.20;57.70;;;;;;5014772;28;20495;-59
2022/04/13 08:15:41;;;;;;;13.17;7.70;;;19.90;55.50;;;;;;5014631;28;20445;-60
2022/04/13 08:18:08;;;;;;;14.00;8.97;;;20.50;53.30;;;;;;5014522;28;20448;-61
2022/04/13 08:20:34;;;;;;;11.40;8.47;;;20.70;52.20;;;;;;5014045;28;20489;-58
2022/04/13 08:23:01;;;;;;;10.43;7.73;;;21.00;51.40;;;;;;5014646;28;20534;-60
2022/04/13 08:25:28;;;;;;;13.33;8.50;;;21.20;50.30;;;;;;5014052;28;20452;-59
2022/04/13 08:27:55;;;;;;;13.33;7.93;;;21.70;49.90;;;;;;5013976;28;20488;-58
2022/04/13 08:30:23;;;;;;;14.30;8.60;;;22.00;48.90;;;;;;5013693;28;20552;-59
2022/04/13 08:32:51;;;;;;;13.40;7.70;;;22.10;48.50;;;;;;5013603;28;20461;-60
2022/04/13 08:35:18;;;;;;;7.70;6.70;;;22.40;48.00;;;;;;5015080;28;20528;-59
2022/04/13 08:37:45;;;;;;;13.50;8.23;;;22.60;47.50;;;;;;5017117;28;20924;-59
2022/04/13 08:40:12;;;;;;;10.27;7.47;;;23.00;47.00;;;;;;5017374;28;20488;-58
2022/04/13 08:42:47;;;;;;;10.07;7.47;;;23.30;46.70;;;;;;5017328;28;20464;-60
2022/04/13 08:45:21;;;;;;;10.57;7.20;;;23.60;45.90;;;;;;5017357;28;20484;-60
2022/04/13 08:47:49;;;;;;;10.27;8.47;;;23.90;45.30;;;;;;5017284;28;20464;-60
2022/04/13 08:50:18;;;;;;;10.03;7.43;;;23.80;44.40;;;;;;5017000;28;20568;-60
2022/04/13 08:52:50;;;;;;;14.30;9.87;;;23.70;44.20;;;;;;5016971;28;20429;-59
2022/04/13 08:55:22;;;;;;;11.00;7.33;;;23.70;44.40;;;;;;5017396;28;20534;-60
2022/04/13 08:57:50;;;;;;;13.07;8.37;;;23.60;44.50;;;;;;5017218;28;20758;-60
2022/04/13 09:00:18;;;;;;;12.07;8.10;;;23.90;44.40;;;;;;5017166;28;20489;-62
2022/04/13 09:03:09;;;;;;;10.73;8.03;;;24.40;43.60;;;;;;5016677;28;20792;-59
2022/04/13 09:05:38;;;;;;;12.17;8.37;;;25.00;43.00;;;;;;5016792;28;20469;-60
2022/04/13 09:08:08;;;;;;;10.10;7.73;;;25.60;42.30;;;;;;5016852;28;20448;-57
2022/04/13 09:10:37;;;;;;;11.13;8.70;;;25.80;42.00;;;;;;5016951;28;20429;-58
2022/04/13 09:13:05;;;;;;;10.33;7.57;;;26.10;41.50;;;;;;5016457;28;20468;-57
2022/04/13 09:15:34;;;;;;;13.50;9.23;;;26.30;41.00;;;;;;5016851;28;20445;-57
2022/04/13 09:18:01;;;;;;;12.50;8.30;;;26.40;40.30;;;;;;5016651;28;20469;-58
2022/04/13 09:20:28;;;;;;;12.73;9.00;;;26.80;39.30;;;;;;5016209;28;20476;-58
2022/04/13 09:22:59;;;;;;;13.43;8.97;;;26.70;39.20;;;;;;5016268;28;20445;-58
2022/04/13 09:25:27;;;;;;;13.53;8.43;;;26.70;39.50;;;;;;5016641;28;20430;-57
2022/04/13 09:27:54;;;;;;;8.50;7.50;;;26.60;39.10;;;;;;5016396;28;20453;-59
2022/04/13 09:30:21;;;;;;;9.10;7.90;;;27.00;38.80;;;;;;5016405;28;20535;-59
2022/04/13 09:32:52;;;;;;;11.80;7.03;;;27.20;38.80;;;;;;5016052;28;20453;-59
2022/04/13 09:35:19;;;;;;;13.07;9.13;;;27.40;38.20;;;;;;5016858;28;20500;-56
2022/04/13 09:37:46;;;;;;;15.17;7.50;;;27.60;38.30;;;;;;5016373;28;20445;-60
2022/04/13 09:40:31;;;;;;;11.27;8.07;;;27.40;38.00;;;;;;5015903;28;20491;-58
2022/04/13 09:43:09;;;;;;;11.20;6.63;;;27.40;37.80;;;;;;5016028;28;20429;-58
2022/04/13 09:45:39;;;;;;;11.37;7.83;;;27.40;38.50;;;;;;5015878;28;20543;-57
2022/04/13 09:48:07;;;;;;;9.97;6.93;;;27.40;38.50;;;;;;5016215;28;20824;-58
2022/04/13 09:50:35;;;;;;;14.13;7.90;;;27.20;38.50;;;;;;5016094;28;20457;-57
2022/04/13 09:53:05;;;;;;;10.50;8.17;;;27.10;38.80;;;;;;5015893;28;20460;-54
2022/04/13 09:55:34;;;;;;;10.77;7.20;;;27.10;38.10;;;;;;5016259;28;20781;-57
2022/04/13 09:58:12;;;;;;;9.50;7.40;;;27.40;37.80;;;;;;5015701;28;20557;-60
2022/04/13 10:00:40;;;;;;;9.90;7.40;;;27.80;36.90;;;;;;5015542;28;20487;-58
2022/04/13 10:03:09;;;;;;;10.77;7.87;;;27.80;37.20;;;;;;5015757;28;20563;-57
2022/04/13 10:05:36;;;;;;;12.10;7.80;;;27.80;37.10;;;;;;5015576;28;20461;-58
2022/04/13 10:08:04;;;;;;;11.80;7.97;;;27.50;37.30;;;;;;5015373;28;20477;-57
2022/04/13 10:10:31;;;;;;;10.73;7.23;;;27.30;37.70;;;;;;5015484;28;20445;-60
2022/04/13 10:12:59;;;;;;;9.20;7.10;;;27.40;38.10;;;;;;5015545;28;20480;-59
2022/04/13 10:15:26;;;;;;;8.43;6.70;;;27.40;37.70;;;;;;5015648;28;20433;-57
2022/04/13 10:17:59;;;;;;;12.70;8.40;;;27.40;37.40;;;;;;5015333;28;20492;-59
2022/04/13 10:20:40;;;;;;;13.33;7.70;;;27.40;37.60;;;;;;5015553;28;20986;-56
2022/04/13 10:23:07;;;;;;;11.93;8.83;;;27.10;38.50;;;;;;5015509;28;20429;-61
2022/04/13 10:25:34;;;;;;;17.53;10.87;;;27.10;37.90;;;;;;5015495;28;20552;-57
2022/04/13 10:28:03;;;;;;;10.83;8.10;;;27.30;37.90;;;;;;5015291;28;20445;-56
2022/04/13 10:30:32;;;;;;;11.13;7.40;;;27.40;37.10;;;;;;5015265;28;20469;-59
2022/04/13 10:33:00;;;;;;;11.03;7.87;;;27.20;38.00;;;;;;5015422;28;20456;-57
2022/04/13 10:35:28;;;;;;;11.37;7.60;;;26.90;38.30;;;;;;5015078;28;20505;-58
2022/04/13 10:37:55;;;;;;;17.83;8.30;;;26.90;38.30;;;;;;5015287;28;20465;-59
2022/04/13 10:40:24;;;;;;;10.40;8.23;;;26.80;38.20;;;;;;5015016;28;20484;-58
2022/04/13 10:42:52;;;;;;;8.53;7.20;;;26.70;37.80;;;;;;5015285;28;20437;-57
2022/04/13 10:45:21;;;;;;;9.43;7.40;;;26.40;38.90;;;;;;5015163;28;20544;-57
2022/04/13 10:47:54;;;;;;;10.20;7.77;;;26.10;38.30;;;;;;5015125;28;20483;-60
2022/04/13 10:50:30;;;;;;;11.97;7.60;;;25.90;38.30;;;;;;5015025;28;20433;-58
2022/04/13 10:52:59;;;;;;;12.33;6.87;;;25.90;39.30;;;;;;5014748;28;20472;-58
2022/04/13 10:55:29;;;;;;;10.40;6.27;;;25.90;39.20;;;;;;5015007;28;20555;-57
2022/04/13 10:58:00;;;;;;;11.73;7.00;;;25.90;39.30;;;;;;5014064;28;20513;-57
2022/04/13 11:00:32;;;;;;;11.33;7.83;;;25.70;39.30;;;;;;5014536;28;20583;-59
2022/04/13 11:03:02;;;;;;;8.67;6.40;;;25.30;40.10;;;;;;5014679;28;20515;-56
2022/04/13 11:05:30;;;;;;;9.13;7.23;;;25.10;39.90;;;;;;5014787;28;20461;-57
2022/04/13 11:08:09;;;;;;;12.33;7.00;;;25.10;40.40;;;;;;5014544;28;20433;-59
2022/04/13 11:10:37;;;;;;;13.70;6.37;;;25.00;40.00;;;;;;5014661;28;20942;-58
2022/04/13 11:13:04;;;;;;;12.30;7.23;;;24.70;40.50;;;;;;5014988;28;20444;-63
2022/04/13 11:15:42;;;;;;;9.90;6.20;;;24.50;41.00;;;;;;5014827;28;20449;-59
2022/04/13 11:18:11;;;;;;;12.37;6.60;;;24.40;41.00;;;;;;5015201;28;20747;-61
2022/04/13 11:20:39;;;;;;;10.00;7.37;;;24.30;41.90;;;;;;5015213;28;20818;-61
2022/04/13 11:23:13;;;;;;;9.60;7.40;;;24.20;41.60;;;;;;5015223;28;20455;-55
2022/04/13 11:25:48;;;;;;;9.07;6.03;;;24.10;42.70;;;;;;5015134;28;20469;-67
2022/04/13 11:28:29;;;;;;;9.77;6.40;;;24.00;42.00;;;;;;5015009;28;20444;-56
2022/04/13 11:31:06;;;;;;;9.30;7.07;;;24.00;42.10;;;;;;5014957;28;20468;-58
2022/04/13 11:33:51;;;;;;;9.10;6.73;;;23.90;42.60;;;;;;5014564;28;20464;-59
2022/04/13 11:36:19;;;;;;;11.03;6.70;;;23.70;43.70;;;;;;5014279;28;20465;-58
2022/04/13 11:38:50;;;;;;;10.00;5.37;;;23.70;42.60;;;;;;5014218;28;20435;-57
2022/04/13 11:41:17;;;;;;;7.70;5.97;;;23.80;42.80;;;;;;5014494;28;20480;-58
2022/04/13 11:43:45;;;;;;;9.10;6.13;;;23.90;42.30;;;;;;5014508;28;20475;-58
2022/04/13 11:46:39;;;;;;;8.03;5.77;;;23.80;42.60;;;;;;5014507;28;20445;-59
2022/04/13 11:49:10;;;;;;;10.17;6.53;;;23.80;42.80;;;;;;5014468;28;20472;-61
2022/04/13 11:51:37;;;;;;;7.43;5.90;;;23.80;43.40;;;;;;5014504;28;20834;-58
2022/04/13 11:54:09;;;;;;;10.37;7.50;;;23.70;43.10;;;;;;5014000;28;20599;-58
2022/04/13 11:56:37;;;;;;;8.73;6.47;;;23.60;42.50;;;;;;5014372;28;20518;-59
2022/04/13 11:59:05;;;;;;;8.87;5.97;;;23.50;42.80;;;;;;5013958;28;21066;-59
2022/04/13 12:01:33;;;;;;;8.63;6.57;;;23.50;43.90;;;;;;5014266;28;20560;-56
2022/04/13 12:04:05;;;;;;;7.23;5.50;;;23.40;43.40;;;;;;5014120;28;20475;-57
2022/04/13 12:06:32;;;;;;;7.47;6.10;;;23.50;43.40;;;;;;5014176;28;20932;-58
2022/04/13 12:09:01;;;;;;;9.47;6.27;;;23.40;43.30;;;;;;5015084;28;20456;-55
2022/04/13 12:11:40;;;;;;;10.57;6.03;;;23.40;43.40;;;;;;5017659;28;20452;-59
2022/04/13 12:14:07;;;;;;;10.97;6.00;;;23.30;43.10;;;;;;5017690;28;20433;-58
2022/04/13 12:16:37;;;;;;;8.10;6.57;;;23.20;43.20;;;;;;5017625;28;20519;-58
2022/04/13 12:19:07;;;;;;;10.10;5.27;;;23.20;43.30;;;;;;5017950;28;20452;-58
2022/04/13 12:21:37;;;;;;;8.50;6.53;;;23.20;43.40;;;;;;5017778;28;20550;-57
2022/04/13 12:24:05;;;;;;;9.53;5.30;;;23.20;43.70;;;;;;5017827;28;20563;-57
2022/04/13 12:26:33;;;;;;;8.67;5.57;;;23.30;43.40;;;;;;5017441;28;20508;-57
2022/04/13 12:29:01;;;;;;;9.07;5.27;;;23.10;43.30;;;;;;5017657;28;20579;-56
2022/04/13 12:31:28;;;;;;;12.63;6.00;;;23.00;44.00;;;;;;5017622;28;20461;-57
2022/04/13 12:34:01;;;;;;;10.07;5.20;;;23.00;43.90;;;;;;5017663;28;20552;-59
2022/04/13 12:36:29;;;;;;;9.27;5.57;;;23.10;44.20;;;;;;5017680;28;20792;-58
2022/04/13 12:38:57;;;;;;;11.93;5.70;;;22.90;43.20;;;;;;5017402;28;20543;-58
2022/04/13 12:41:25;;;;;;;7.50;4.70;;;22.80;44.10;;;;;;5017415;28;20496;-56
2022/04/13 12:43:54;;;;;;;10.43;5.10;;;23.00;43.90;;;;;;5017123;28;20947;-57
2022/04/13 12:46:22;;;;;;;5.80;4.67;;;23.00;43.20;;;;;;5017381;28;20768;-56
2022/04/13 12:48:52;;;;;;;6.90;4.60;;;23.10;43.10;;;;;;5016945;28;20479;-61